Main page
METAR-TAF:

METAR-TAF

Airports :

Al Udeid, Qatar

Al Udeid Air Base

latitude: 25-07N, longitude: 051-18E, elevation: 42 m

Current weather observation

The report was made 53 minutes ago, at 08:56 UTC
Wind 10 kt from the Northwest
Temperature 36°C
Humidity 24%
Pressure 1010 hPa
Visibility: 9000 m
Clear sky
haze

METAR: OTBH 220856Z 31010KT 9000 HZ CLR 36/12 A2983 RMK AO2A SLP102 T03630118 58019 $

Time: 12:49 (09:49 UTC)

Forecast

The report was made 2 hours and 49 minutes ago, at 07:00 UTC
Forecast valid from 22 at 07 UTC to 23 at 13 UTC
Wind 9 kt from the West/Northwest
Visibility: 9000 m
Clear sky
haze
Becoming
from 22 at 16 UTC to 22 at 17 UTC
Wind 6 kt from variable directions
Visibility: 9000 m
Clear sky
haze
Becoming
from 23 at 08 UTC to 23 at 09 UTC
Wind 9 kt from the North/Northeast
Visibility: 9000 m
Clear sky
haze

TAF: OTBH 220700Z 2207/2313 30009KT 9000 HZ SKC QNH2976INS BECMG 2216/2217 VRB06KT 9000 HZ SKC QNH2977INS BECMG 2308/2309 03009KT 9000 HZ SKC QNH2985INS TX38/2211Z TN22/2302Z

Weather observations and forecasts of more than 4000 airports (METAR and TAF reports).

The available stations are represented by yellow and red dots on the map.

Hover mouse over dot to see the name of the station.

Then click to see weather observations and forecasts.

To change the map : click on the green buttons with a black cross to zoom in, on the green button with a dash to zoom out, or on the green arrows for adjacent maps.


METAR-TAF: